Legend :    VFR   Marginal VFR   IFR   Intensive IFR   Very Intensive IFR
Visi :
Ceiling :
>= 8 km
>= 3000ft
5 to 8 km
1000 to 3000 ft
1500m to 5 km
500 to 1000 ft
800 to 1500m
200 to 500 ft
< 800m
< 200 ft
Symbols :   Thunderstorms  Fog  Heavy snow  Heavy precipitations  Wind > 20 kt







- Airport Elevation : 1333 ft
- IATA code : ICT


KICT - Wichita Mid Continent

CURRENT METAR :
  • 162053Z 21008KT 10SM FEW050 BKN140 BKN180 BKN220 24/18 A2986 RMK AO2 LTG DSNT N AND NE SLP101 OCNL LTGICCC DSNT NW-NE CB DSNT NW-NE MOVG E-SE T02440178 58017 $

EXPIRED METARs :
  • 161953Z 19009KT 10SM FEW050 BKN140 BKN180 BKN220 24/18 A2989 RMK AO2 SLP109 T02440178 $
  • 161853Z 17007KT 10SM FEW020 SCT050 BKN140 BKN180 BKN220 25/18 A2990 RMK AO2 SLP112 T02500178 $
  • 161753Z 18005KT 10SM FEW020 BKN140 BKN200 BKN250 24/17 A2992 RMK AO2 SLP116 T02390167 10244 20200 55005 $

TAF KICT
Valid from the 16 at 18:00 until the 17 at 18:00 UTC


161752Z 1618/1718 20008KT P6SM SCT020 BKN100
FM162000 19008KT P6SM VCTS SCT030CB BKN060
FM170600 VRB03KT P6SM SCT200
KZKC FIR / North America


LOGIN :  

Disclaimer |     EN      FR      IT 



MET'MAP, your aeronautical weather chart ! - Copyright ORBIFLY December 2007 - Disclaimer


ORBIFLY MET'MAP TEAM :

Programming & Development : Alexandra Zaïnal
Concept & Development : Baudouin d'Aumeries
Co-Development & Prog : Marc-Olivier Méhu
Technical & hardware support : Manuel Goepfert

Contact : metmap@orbifly.com




SOURCES & CREDITS :

   NOAA       Earth
Advisory